Meath Environmental Platform

Observations for Trim Market St

Time AQI Temp °C Hum % Pres Pa CO μg/m³ H₂S μg/m³ NO μg/m³ NO₂ μg/m³ O₃ μg/m³ SO₂ μg/m³ PM1 μg/m³ PM2.5 μg/m³ PM10 μg/m³
Monday 13 July 2026
11:17 1 32.5 35 66,019 0 0 0 0.16 34.43 0 2.85 6.33 6.69
11:16 1 32.6 35 66,021 0 0 0 2.14 34.06 0 2.85 5.26 5.78
11:15 1 32.6 35 65,993 0 0 0 0 26.91 0 3.56 7.94 9.2
11:14 1 32.7 35 65,983 0 0 0 1.32 35.58 0 3.56 6.33 6.69
11:13 1 32.6 35 65,995 0 0 0 0 33.18 0 4.99 7.94 10.87
11:12 1 32.7 34 66,015 0 0 0 2.03 38.62 0 2.85 5.8 6.69
11:11 1 32.6 34 66,013 0 0 0 0 35.93 0 4.28 7.42 8.36
11:10 1 32.7 34 66,039 0 0 0 0 34.46 0 3.56 7.42 9.2
11:09 1 32.7 34 66,042 0 0 0 1.05 33.56 0 3.56 6.88 9.2
11:08 1 32.6 34 66,046 0 0 0 0 33.91 0 2.85 6.35 8.36
11:07 1 32.6 34 66,052 0 0 0 0 37.45 0 3.56 6.35 7.53
11:04 1 32.7 34 66,062 0 0 0 0 30.75 0 2.14 5.27 5.85
11:02 1 32.7 34 66,056 0 0 0 0 38.79 0 2.14 5.28 5.81
10:59 1 32.7 34 66,056 0 0 0 0 21.06 0 1.43 4.74 5.01
10:56 1 32.6 35 66,052 0 0 0 1.94 24.69 0 2.85 6.33 6.69
10:53 1 32.6 34 66,064 0 0 0 0 28.59 0 0.71 4.21 4.63
10:48 1 32.6 34 66,072 0 0 0 0 29.26 0 1.43 4.2 4.62
10:47 1 32.6 34 66,056 0 0 0 0 26.24 0 2.14 5.27 5.8
10:45 1 32.5 35 66,041 0 0 0 0 25.35 0 1.43 4.18 4.6
10:44 1 32.5 35 66,044 0 0 0 0 28.54 0 1.43 4.71 5.18